sensor_id;sensor_type;location;lat;lon;timestamp;temperature;humidity
44537;DHT22;30245;51.966;6.292;2022-08-21T00:00:48;24.50;47.40
44537;DHT22;30245;51.966;6.292;2022-08-21T00:03:14;24.50;47.50
44537;DHT22;30245;51.966;6.292;2022-08-21T00:05:46;24.40;47.60
44537;DHT22;30245;51.966;6.292;2022-08-21T00:08:13;24.40;47.70
44537;DHT22;30245;51.966;6.292;2022-08-21T00:10:40;24.40;47.70
44537;DHT22;30245;51.966;6.292;2022-08-21T00:13:06;24.40;47.70
44537;DHT22;30245;51.966;6.292;2022-08-21T00:15:35;24.40;47.80
44537;DHT22;30245;51.966;6.292;2022-08-21T00:18:01;24.40;47.90
44537;DHT22;30245;51.966;6.292;2022-08-21T00:20:26;24.30;47.80
44537;DHT22;30245;51.966;6.292;2022-08-21T00:22:52;24.30;47.90
44537;DHT22;30245;51.966;6.292;2022-08-21T00:25:20;24.30;47.80
44537;DHT22;30245;51.966;6.292;2022-08-21T00:27:45;24.40;47.90
44537;DHT22;30245;51.966;6.292;2022-08-21T00:30:15;24.30;47.80
44537;DHT22;30245;51.966;6.292;2022-08-21T00:32:41;24.30;47.90
44537;DHT22;30245;51.966;6.292;2022-08-21T00:35:10;24.30;47.90
44537;DHT22;30245;51.966;6.292;2022-08-21T00:37:38;24.30;48.00
44537;DHT22;30245;51.966;6.292;2022-08-21T00:40:05;24.20;48.00
44537;DHT22;30245;51.966;6.292;2022-08-21T00:42:31;24.20;48.10
44537;DHT22;30245;51.966;6.292;2022-08-21T00:44:57;24.20;48.20
44537;DHT22;30245;51.966;6.292;2022-08-21T00:47:23;24.20;48.20
44537;DHT22;30245;51.966;6.292;2022-08-21T00:49:49;24.20;48.20
44537;DHT22;30245;51.966;6.292;2022-08-21T00:52:20;24.20;48.20
44537;DHT22;30245;51.966;6.292;2022-08-21T00:54:48;24.20;48.10
44537;DHT22;30245;51.966;6.292;2022-08-21T00:57:19;24.20;48.10
44537;DHT22;30245;51.966;6.292;2022-08-21T00:59:49;24.30;48.10
44537;DHT22;30245;51.966;6.292;2022-08-21T01:02:16;24.30;48.00
44537;DHT22;30245;51.966;6.292;2022-08-21T01:04:42;24.30;48.00
44537;DHT22;30245;51.966;6.292;2022-08-21T01:07:09;24.20;48.00
44537;DHT22;30245;51.966;6.292;2022-08-21T01:09:35;24.20;48.10
44537;DHT22;30245;51.966;6.292;2022-08-21T01:12:02;24.10;48.30
44537;DHT22;30245;51.966;6.292;2022-08-21T01:14:28;24.10;48.30
44537;DHT22;30245;51.966;6.292;2022-08-21T01:16:56;24.10;48.40
44537;DHT22;30245;51.966;6.292;2022-08-21T01:19:23;24.00;48.40
44537;DHT22;30245;51.966;6.292;2022-08-21T01:21:49;24.00;48.40
44537;DHT22;30245;51.966;6.292;2022-08-21T01:24:15;24.00;48.40
44537;DHT22;30245;51.966;6.292;2022-08-21T01:26:41;23.90;48.50
44537;DHT22;30245;51.966;6.292;2022-08-21T01:29:22;24.00;48.50
44537;DHT22;30245;51.966;6.292;2022-08-21T01:31:49;24.00;48.50
44537;DHT22;30245;51.966;6.292;2022-08-21T01:34:15;24.00;48.50
44537;DHT22;30245;51.966;6.292;2022-08-21T01:36:42;24.00;48.50
44537;DHT22;30245;51.966;6.292;2022-08-21T01:39:08;23.90;48.50
44537;DHT22;30245;51.966;6.292;2022-08-21T01:41:34;24.00;48.60
44537;DHT22;30245;51.966;6.292;2022-08-21T01:44:00;24.00;48.50
44537;DHT22;30245;51.966;6.292;2022-08-21T01:46:26;24.00;48.50
44537;DHT22;30245;51.966;6.292;2022-08-21T01:48:51;23.90;48.50
44537;DHT22;30245;51.966;6.292;2022-08-21T01:51:17;23.80;48.70
44537;DHT22;30245;51.966;6.292;2022-08-21T01:53:43;23.80;48.80
44537;DHT22;30245;51.966;6.292;2022-08-21T01:56:12;23.80;48.90
44537;DHT22;30245;51.966;6.292;2022-08-21T01:58:40;23.70;48.90
44537;DHT22;30245;51.966;6.292;2022-08-21T02:01:06;23.70;49.00
44537;DHT22;30245;51.966;6.292;2022-08-21T02:03:32;23.60;48.90
44537;DHT22;30245;51.966;6.292;2022-08-21T02:05:57;23.60;48.90
44537;DHT22;30245;51.966;6.292;2022-08-21T02:08:23;23.50;49.00
44537;DHT22;30245;51.966;6.292;2022-08-21T02:10:50;23.50;49.30
44537;DHT22;30245;51.966;6.292;2022-08-21T02:13:17;23.40;49.30
44537;DHT22;30245;51.966;6.292;2022-08-21T02:15:43;23.40;49.40
44537;DHT22;30245;51.966;6.292;2022-08-21T02:18:09;23.40;49.40
44537;DHT22;30245;51.966;6.292;2022-08-21T02:20:37;23.40;49.50
44537;DHT22;30245;51.966;6.292;2022-08-21T02:23:05;23.40;49.50
44537;DHT22;30245;51.966;6.292;2022-08-21T02:25:32;23.30;49.50
44537;DHT22;30245;51.966;6.292;2022-08-21T02:27:58;23.30;49.60
44537;DHT22;30245;51.966;6.292;2022-08-21T02:30:28;23.30;49.60
44537;DHT22;30245;51.966;6.292;2022-08-21T02:32:54;23.30;49.70
44537;DHT22;30245;51.966;6.292;2022-08-21T02:35:20;23.20;49.70
44537;DHT22;30245;51.966;6.292;2022-08-21T02:37:54;23.20;49.80
44537;DHT22;30245;51.966;6.292;2022-08-21T02:40:23;23.10;49.90
44537;DHT22;30245;51.966;6.292;2022-08-21T02:42:49;23.10;49.90
44537;DHT22;30245;51.966;6.292;2022-08-21T02:45:16;23.10;49.70
44537;DHT22;30245;51.966;6.292;2022-08-21T02:50:19;23.00;49.90
44537;DHT22;30245;51.966;6.292;2022-08-21T02:52:45;23.00;50.10
44537;DHT22;30245;51.966;6.292;2022-08-21T02:55:10;22.90;50.20
44537;DHT22;30245;51.966;6.292;2022-08-21T02:57:36;22.80;50.30
44537;DHT22;30245;51.966;6.292;2022-08-21T03:00:04;22.70;50.50
44537;DHT22;30245;51.966;6.292;2022-08-21T03:02:30;22.70;50.60
44537;DHT22;30245;51.966;6.292;2022-08-21T03:04:56;22.70;50.70
44537;DHT22;30245;51.966;6.292;2022-08-21T03:07:22;22.70;50.80
44537;DHT22;30245;51.966;6.292;2022-08-21T03:09:47;22.70;50.70
44537;DHT22;30245;51.966;6.292;2022-08-21T03:12:13;22.60;50.70
44537;DHT22;30245;51.966;6.292;2022-08-21T03:14:38;22.60;50.80
44537;DHT22;30245;51.966;6.292;2022-08-21T03:17:04;22.60;50.90
44537;DHT22;30245;51.966;6.292;2022-08-21T03:19:30;22.60;50.90
44537;DHT22;30245;51.966;6.292;2022-08-21T03:21:56;22.60;50.90
44537;DHT22;30245;51.966;6.292;2022-08-21T03:24:21;22.60;51.00
44537;DHT22;30245;51.966;6.292;2022-08-21T03:26:47;22.60;51.10
44537;DHT22;30245;51.966;6.292;2022-08-21T03:29:12;22.50;51.20
44537;DHT22;30245;51.966;6.292;2022-08-21T03:31:38;22.50;51.20
44537;DHT22;30245;51.966;6.292;2022-08-21T03:34:03;22.50;51.30
44537;DHT22;30245;51.966;6.292;2022-08-21T03:36:29;22.50;51.30
44537;DHT22;30245;51.966;6.292;2022-08-21T03:38:55;22.50;51.20
44537;DHT22;30245;51.966;6.292;2022-08-21T03:41:20;22.60;51.20
44537;DHT22;30245;51.966;6.292;2022-08-21T03:43:46;22.60;51.10
44537;DHT22;30245;51.966;6.292;2022-08-21T03:46:12;22.60;51.10
44537;DHT22;30245;51.966;6.292;2022-08-21T03:48:38;22.60;51.10
44537;DHT22;30245;51.966;6.292;2022-08-21T03:51:04;22.50;51.10
44537;DHT22;30245;51.966;6.292;2022-08-21T03:53:30;22.60;51.20
44537;DHT22;30245;51.966;6.292;2022-08-21T03:55:56;22.60;51.20
44537;DHT22;30245;51.966;6.292;2022-08-21T03:58:24;22.50;51.20
44537;DHT22;30245;51.966;6.292;2022-08-21T04:00:52;22.50;51.20
44537;DHT22;30245;51.966;6.292;2022-08-21T04:03:19;22.40;51.30
44537;DHT22;30245;51.966;6.292;2022-08-21T04:05:46;22.40;51.40
44537;DHT22;30245;51.966;6.292;2022-08-21T04:08:12;22.50;51.50
44537;DHT22;30245;51.966;6.292;2022-08-21T04:10:39;22.40;51.40
44537;DHT22;30245;51.966;6.292;2022-08-21T04:13:06;22.40;51.40
44537;DHT22;30245;51.966;6.292;2022-08-21T04:15:33;22.40;51.50
44537;DHT22;30245;51.966;6.292;2022-08-21T04:17:59;22.30;51.60
44537;DHT22;30245;51.966;6.292;2022-08-21T04:20:25;22.30;51.70
44537;DHT22;30245;51.966;6.292;2022-08-21T04:22:51;22.30;51.70
44537;DHT22;30245;51.966;6.292;2022-08-21T04:25:19;22.20;51.70
44537;DHT22;30245;51.966;6.292;2022-08-21T04:27:45;22.20;51.90
44537;DHT22;30245;51.966;6.292;2022-08-21T04:30:12;22.20;52.00
44537;DHT22;30245;51.966;6.292;2022-08-21T04:32:38;22.10;52.10
44537;DHT22;30245;51.966;6.292;2022-08-21T04:35:07;22.00;52.30
44537;DHT22;30245;51.966;6.292;2022-08-21T04:37:33;22.00;52.60
44537;DHT22;30245;51.966;6.292;2022-08-21T04:39:59;21.90;52.80
44537;DHT22;30245;51.966;6.292;2022-08-21T04:42:26;21.80;53.60
44537;DHT22;30245;51.966;6.292;2022-08-21T04:44:53;21.80;53.20
44537;DHT22;30245;51.966;6.292;2022-08-21T04:47:18;21.70;53.30
44537;DHT22;30245;51.966;6.292;2022-08-21T04:49:44;21.70;54.00
44537;DHT22;30245;51.966;6.292;2022-08-21T04:52:11;21.70;53.50
44537;DHT22;30245;51.966;6.292;2022-08-21T04:54:38;21.80;53.50
44537;DHT22;30245;51.966;6.292;2022-08-21T04:57:07;21.80;53.40
44537;DHT22;30245;51.966;6.292;2022-08-21T04:59:43;21.80;53.40
44537;DHT22;30245;51.966;6.292;2022-08-21T05:02:10;21.80;53.50
44537;DHT22;30245;51.966;6.292;2022-08-21T05:04:42;21.80;53.50
44537;DHT22;30245;51.966;6.292;2022-08-21T05:07:20;21.80;53.50
44537;DHT22;30245;51.966;6.292;2022-08-21T05:09:47;21.80;53.50
44537;DHT22;30245;51.966;6.292;2022-08-21T05:12:13;21.80;53.50
44537;DHT22;30245;51.966;6.292;2022-08-21T05:14:38;21.80;53.60
44537;DHT22;30245;51.966;6.292;2022-08-21T05:17:04;21.80;53.60
44537;DHT22;30245;51.966;6.292;2022-08-21T05:19:30;21.80;53.70
44537;DHT22;30245;51.966;6.292;2022-08-21T05:21:56;21.80;53.70
44537;DHT22;30245;51.966;6.292;2022-08-21T05:24:23;21.80;53.80
44537;DHT22;30245;51.966;6.292;2022-08-21T05:26:49;21.80;53.80
44537;DHT22;30245;51.966;6.292;2022-08-21T05:29:15;21.80;53.80
44537;DHT22;30245;51.966;6.292;2022-08-21T05:31:41;21.80;53.80
44537;DHT22;30245;51.966;6.292;2022-08-21T05:34:07;21.80;53.90
44537;DHT22;30245;51.966;6.292;2022-08-21T05:36:33;21.90;54.00
44537;DHT22;30245;51.966;6.292;2022-08-21T05:38:59;21.80;54.00
44537;DHT22;30245;51.966;6.292;2022-08-21T05:41:24;21.90;54.00
44537;DHT22;30245;51.966;6.292;2022-08-21T05:43:50;21.90;54.10
44537;DHT22;30245;51.966;6.292;2022-08-21T05:46:16;21.90;54.10
44537;DHT22;30245;51.966;6.292;2022-08-21T05:48:42;21.90;54.20
44537;DHT22;30245;51.966;6.292;2022-08-21T05:51:13;22.00;54.20
44537;DHT22;30245;51.966;6.292;2022-08-21T05:53:41;22.00;54.30
44537;DHT22;30245;51.966;6.292;2022-08-21T05:56:08;22.00;54.30
44537;DHT22;30245;51.966;6.292;2022-08-21T05:58:34;22.10;54.40
44537;DHT22;30245;51.966;6.292;2022-08-21T06:01:01;22.10;54.50
44537;DHT22;30245;51.966;6.292;2022-08-21T06:03:31;22.10;54.60
44537;DHT22;30245;51.966;6.292;2022-08-21T06:05:57;22.00;54.80
44537;DHT22;30245;51.966;6.292;2022-08-21T06:08:23;22.00;55.00
44537;DHT22;30245;51.966;6.292;2022-08-21T06:10:51;21.90;55.20
44537;DHT22;30245;51.966;6.292;2022-08-21T06:13:18;21.90;55.60
44537;DHT22;30245;51.966;6.292;2022-08-21T06:15:44;21.90;55.60
44537;DHT22;30245;51.966;6.292;2022-08-21T06:18:10;21.80;55.70
44537;DHT22;30245;51.966;6.292;2022-08-21T06:20:36;21.80;55.80
44537;DHT22;30245;51.966;6.292;2022-08-21T06:23:02;21.90;55.80
44537;DHT22;30245;51.966;6.292;2022-08-21T06:25:28;21.90;55.70
44537;DHT22;30245;51.966;6.292;2022-08-21T06:28:04;22.00;55.60
44537;DHT22;30245;51.966;6.292;2022-08-21T06:30:30;22.10;55.50
44537;DHT22;30245;51.966;6.292;2022-08-21T06:32:56;22.10;55.30
44537;DHT22;30245;51.966;6.292;2022-08-21T06:35:22;22.20;55.90
44537;DHT22;30245;51.966;6.292;2022-08-21T06:37:49;22.40;55.10
44537;DHT22;30245;51.966;6.292;2022-08-21T06:40:15;22.50;54.90
44537;DHT22;30245;51.966;6.292;2022-08-21T06:42:41;22.50;54.80
44537;DHT22;30245;51.966;6.292;2022-08-21T06:45:06;22.50;54.80
44537;DHT22;30245;51.966;6.292;2022-08-21T06:47:32;22.50;54.80
44537;DHT22;30245;51.966;6.292;2022-08-21T06:49:58;22.40;55.00
44537;DHT22;30245;51.966;6.292;2022-08-21T06:52:23;22.40;55.00
44537;DHT22;30245;51.966;6.292;2022-08-21T06:54:49;22.30;55.10
44537;DHT22;30245;51.966;6.292;2022-08-21T06:57:15;22.40;55.20
44537;DHT22;30245;51.966;6.292;2022-08-21T06:59:40;22.40;55.20
44537;DHT22;30245;51.966;6.292;2022-08-21T07:02:06;22.40;55.20
44537;DHT22;30245;51.966;6.292;2022-08-21T07:04:33;22.50;55.10
44537;DHT22;30245;51.966;6.292;2022-08-21T07:06:58;22.60;55.00
44537;DHT22;30245;51.966;6.292;2022-08-21T07:09:24;22.60;54.90
44537;DHT22;30245;51.966;6.292;2022-08-21T07:11:51;22.70;54.90
44537;DHT22;30245;51.966;6.292;2022-08-21T07:14:17;22.80;54.70
44537;DHT22;30245;51.966;6.292;2022-08-21T07:16:42;22.80;54.70
44537;DHT22;30245;51.966;6.292;2022-08-21T07:19:08;22.80;54.70
44537;DHT22;30245;51.966;6.292;2022-08-21T07:21:33;22.80;54.70
44537;DHT22;30245;51.966;6.292;2022-08-21T07:23:59;22.90;54.70
44537;DHT22;30245;51.966;6.292;2022-08-21T07:26:25;23.00;54.60
44537;DHT22;30245;51.966;6.292;2022-08-21T07:28:51;23.10;54.30
44537;DHT22;30245;51.966;6.292;2022-08-21T07:31:20;23.10;54.30
44537;DHT22;30245;51.966;6.292;2022-08-21T07:33:47;23.20;54.30
44537;DHT22;30245;51.966;6.292;2022-08-21T07:36:12;23.20;54.30
44537;DHT22;30245;51.966;6.292;2022-08-21T07:38:38;23.30;54.30
44537;DHT22;30245;51.966;6.292;2022-08-21T07:41:13;23.30;54.20
44537;DHT22;30245;51.966;6.292;2022-08-21T07:43:39;23.40;54.10
44537;DHT22;30245;51.966;6.292;2022-08-21T07:46:05;23.50;53.80
44537;DHT22;30245;51.966;6.292;2022-08-21T07:48:30;23.60;53.80
44537;DHT22;30245;51.966;6.292;2022-08-21T07:50:56;23.70;53.70
44537;DHT22;30245;51.966;6.292;2022-08-21T07:53:22;23.80;53.60
44537;DHT22;30245;51.966;6.292;2022-08-21T07:55:48;23.90;53.40
44537;DHT22;30245;51.966;6.292;2022-08-21T07:58:14;23.90;53.10
44537;DHT22;30245;51.966;6.292;2022-08-21T08:00:40;23.90;53.00
44537;DHT22;30245;51.966;6.292;2022-08-21T08:03:05;24.00;53.10
44537;DHT22;30245;51.966;6.292;2022-08-21T08:05:32;24.10;52.90
44537;DHT22;30245;51.966;6.292;2022-08-21T08:07:57;24.10;52.80
44537;DHT22;30245;51.966;6.292;2022-08-21T08:10:24;24.20;52.70
44537;DHT22;30245;51.966;6.292;2022-08-21T08:12:51;24.20;52.60
44537;DHT22;30245;51.966;6.292;2022-08-21T08:15:20;24.40;52.50
44537;DHT22;30245;51.966;6.292;2022-08-21T08:17:46;24.40;52.20
44537;DHT22;30245;51.966;6.292;2022-08-21T08:20:13;24.40;52.30
44537;DHT22;30245;51.966;6.292;2022-08-21T08:22:39;24.40;52.10
44537;DHT22;30245;51.966;6.292;2022-08-21T08:25:06;24.50;52.10
44537;DHT22;30245;51.966;6.292;2022-08-21T08:27:32;24.40;52.20
44537;DHT22;30245;51.966;6.292;2022-08-21T08:29:58;24.40;52.20
44537;DHT22;30245;51.966;6.292;2022-08-21T08:32:24;24.40;52.20
44537;DHT22;30245;51.966;6.292;2022-08-21T08:34:50;24.50;52.20
44537;DHT22;30245;51.966;6.292;2022-08-21T08:37:17;24.50;52.00
44537;DHT22;30245;51.966;6.292;2022-08-21T08:39:43;24.50;51.90
44537;DHT22;30245;51.966;6.292;2022-08-21T08:42:14;24.60;51.70
44537;DHT22;30245;51.966;6.292;2022-08-21T08:44:41;24.70;51.50
44537;DHT22;30245;51.966;6.292;2022-08-21T08:47:09;24.80;51.30
44537;DHT22;30245;51.966;6.292;2022-08-21T08:52:26;25.00;51.00
44537;DHT22;30245;51.966;6.292;2022-08-21T08:55:07;25.10;51.60
44537;DHT22;30245;51.966;6.292;2022-08-21T08:57:35;25.10;50.80
44537;DHT22;30245;51.966;6.292;2022-08-21T09:00:06;25.20;50.90
44537;DHT22;30245;51.966;6.292;2022-08-21T09:02:32;25.30;51.00
44537;DHT22;30245;51.966;6.292;2022-08-21T09:04:59;25.30;50.80
44537;DHT22;30245;51.966;6.292;2022-08-21T09:19:02;26.00;50.00
44537;DHT22;30245;51.966;6.292;2022-08-21T09:24:26;26.10;50.00
44537;DHT22;30245;51.966;6.292;2022-08-21T09:27:12;26.20;49.50
44537;DHT22;30245;51.966;6.292;2022-08-21T09:29:44;26.40;49.60
44537;DHT22;30245;51.966;6.292;2022-08-21T09:32:16;26.50;49.40
44537;DHT22;30245;51.966;6.292;2022-08-21T09:37:23;26.80;49.10
44537;DHT22;30245;51.966;6.292;2022-08-21T09:39:49;27.00;48.80
44537;DHT22;30245;51.966;6.292;2022-08-21T09:42:26;27.20;48.50
44537;DHT22;30245;51.966;6.292;2022-08-21T09:45:15;27.40;48.30
44537;DHT22;30245;51.966;6.292;2022-08-21T09:47:42;27.40;47.90
44537;DHT22;30245;51.966;6.292;2022-08-21T09:50:17;27.40;47.50
44537;DHT22;30245;51.966;6.292;2022-08-21T09:52:51;27.50;47.50
44537;DHT22;30245;51.966;6.292;2022-08-21T09:55:24;27.70;47.40
44537;DHT22;30245;51.966;6.292;2022-08-21T09:58:10;28.00;46.80
44537;DHT22;30245;51.966;6.292;2022-08-21T10:00:36;28.30;46.50
44537;DHT22;30245;51.966;6.292;2022-08-21T10:03:18;28.40;46.10
44537;DHT22;30245;51.966;6.292;2022-08-21T10:05:59;28.60;46.10
44537;DHT22;30245;51.966;6.292;2022-08-21T10:08:26;28.90;45.30
44537;DHT22;30245;51.966;6.292;2022-08-21T10:11:07;29.00;45.20
44537;DHT22;30245;51.966;6.292;2022-08-21T10:13:51;29.20;44.70
44537;DHT22;30245;51.966;6.292;2022-08-21T10:24:51;29.80;43.20
44537;DHT22;30245;51.966;6.292;2022-08-21T10:30:12;30.10;41.90
44537;DHT22;30245;51.966;6.292;2022-08-21T10:35:26;30.30;41.70
44537;DHT22;30245;51.966;6.292;2022-08-21T10:40:40;31.30;40.20
44537;DHT22;30245;51.966;6.292;2022-08-21T10:43:30;31.80;39.30
44537;DHT22;30245;51.966;6.292;2022-08-21T10:48:36;31.70;38.60
44537;DHT22;30245;51.966;6.292;2022-08-21T10:53:55;31.90;38.10
44537;DHT22;30245;51.966;6.292;2022-08-21T10:56:31;32.20;37.90
44537;DHT22;30245;51.966;6.292;2022-08-21T10:59:25;32.40;37.50
44537;DHT22;30245;51.966;6.292;2022-08-21T11:04:37;33.00;36.60
44537;DHT22;30245;51.966;6.292;2022-08-21T11:07:16;33.20;36.20
44537;DHT22;30245;51.966;6.292;2022-08-21T11:09:45;33.20;36.10
44537;DHT22;30245;51.966;6.292;2022-08-21T11:12:38;33.20;36.10
44537;DHT22;30245;51.966;6.292;2022-08-21T11:15:23;32.90;36.20
44537;DHT22;30245;51.966;6.292;2022-08-21T11:21:12;33.00;36.40
44537;DHT22;30245;51.966;6.292;2022-08-21T11:23:45;33.00;35.80
44537;DHT22;30245;51.966;6.292;2022-08-21T11:26:23;33.00;35.60
44537;DHT22;30245;51.966;6.292;2022-08-21T11:28:55;32.90;35.50
44537;DHT22;30245;51.966;6.292;2022-08-21T11:40:09;32.50;35.30
44537;DHT22;30245;51.966;6.292;2022-08-21T11:42:46;32.40;35.40
44537;DHT22;30245;51.966;6.292;2022-08-21T11:45:30;32.20;35.60
44537;DHT22;30245;51.966;6.292;2022-08-21T11:51:20;32.10;35.30
44537;DHT22;30245;51.966;6.292;2022-08-21T11:56:29;32.20;35.50
44537;DHT22;30245;51.966;6.292;2022-08-21T11:59:01;32.60;35.00
44537;DHT22;30245;51.966;6.292;2022-08-21T12:01:32;32.80;34.50
44537;DHT22;30245;51.966;6.292;2022-08-21T12:04:04;32.90;34.40
44537;DHT22;30245;51.966;6.292;2022-08-21T12:06:37;33.20;34.20
44537;DHT22;30245;51.966;6.292;2022-08-21T12:09:32;33.40;33.40
44537;DHT22;30245;51.966;6.292;2022-08-21T12:12:22;33.40;33.40
44537;DHT22;30245;51.966;6.292;2022-08-21T12:14:50;33.30;33.50
44537;DHT22;30245;51.966;6.292;2022-08-21T12:17:26;33.40;33.90
44537;DHT22;30245;51.966;6.292;2022-08-21T12:20:02;33.40;33.50
44537;DHT22;30245;51.966;6.292;2022-08-21T12:22:40;33.50;33.30
44537;DHT22;30245;51.966;6.292;2022-08-21T12:25:10;33.30;33.50
44537;DHT22;30245;51.966;6.292;2022-08-21T12:27:47;33.10;33.50
44537;DHT22;30245;51.966;6.292;2022-08-21T12:30:33;33.00;33.70
44537;DHT22;30245;51.966;6.292;2022-08-21T12:33:50;33.00;33.80
44537;DHT22;30245;51.966;6.292;2022-08-21T12:35:51;33.00;33.70
44537;DHT22;30245;51.966;6.292;2022-08-21T12:38:21;33.10;33.70
44537;DHT22;30245;51.966;6.292;2022-08-21T12:40:57;33.40;33.70
44537;DHT22;30245;51.966;6.292;2022-08-21T12:43:37;33.60;33.30
44537;DHT22;30245;51.966;6.292;2022-08-21T12:46:04;33.50;32.80
44537;DHT22;30245;51.966;6.292;2022-08-21T12:48:35;33.20;32.90
44537;DHT22;30245;51.966;6.292;2022-08-21T12:51:19;33.10;33.20
44537;DHT22;30245;51.966;6.292;2022-08-21T12:53:50;32.90;33.20
44537;DHT22;30245;51.966;6.292;2022-08-21T12:56:20;33.00;33.30
44537;DHT22;30245;51.966;6.292;2022-08-21T12:58:48;32.90;33.40
44537;DHT22;30245;51.966;6.292;2022-08-21T13:01:48;32.90;33.40
44537;DHT22;30245;51.966;6.292;2022-08-21T13:04:19;33.00;33.20
44537;DHT22;30245;51.966;6.292;2022-08-21T13:06:49;33.30;32.70
44537;DHT22;30245;51.966;6.292;2022-08-21T13:09:26;33.60;32.60
44537;DHT22;30245;51.966;6.292;2022-08-21T13:11:53;34.00;32.40
44537;DHT22;30245;51.966;6.292;2022-08-21T13:16:45;34.40;31.50
44537;DHT22;30245;51.966;6.292;2022-08-21T13:19:11;34.40;31.70
44537;DHT22;30245;51.966;6.292;2022-08-21T13:21:43;34.50;31.50
44537;DHT22;30245;51.966;6.292;2022-08-21T13:26:52;34.90;31.20
44537;DHT22;30245;51.966;6.292;2022-08-21T13:29:22;34.90;30.90
44537;DHT22;30245;51.966;6.292;2022-08-21T13:31:58;34.90;30.60
44537;DHT22;30245;51.966;6.292;2022-08-21T13:34:31;34.80;30.50
44537;DHT22;30245;51.966;6.292;2022-08-21T13:37:01;34.80;30.20
44537;DHT22;30245;51.966;6.292;2022-08-21T13:39:28;34.50;30.00
44537;DHT22;30245;51.966;6.292;2022-08-21T13:41:55;34.10;30.00
44537;DHT22;30245;51.966;6.292;2022-08-21T13:46:53;33.60;30.90
44537;DHT22;30245;51.966;6.292;2022-08-21T13:49:21;33.50;31.00
44537;DHT22;30245;51.966;6.292;2022-08-21T13:51:49;33.50;31.00
44537;DHT22;30245;51.966;6.292;2022-08-21T13:54:26;33.50;31.10
44537;DHT22;30245;51.966;6.292;2022-08-21T13:56:54;33.50;31.00
44537;DHT22;30245;51.966;6.292;2022-08-21T13:59:32;33.50;31.20
44537;DHT22;30245;51.966;6.292;2022-08-21T14:04:36;34.20;30.70
44537;DHT22;30245;51.966;6.292;2022-08-21T14:07:02;34.60;30.30
44537;DHT22;30245;51.966;6.292;2022-08-21T14:09:43;35.00;29.70
44537;DHT22;30245;51.966;6.292;2022-08-21T14:12:19;35.40;29.50
44537;DHT22;30245;51.966;6.292;2022-08-21T14:14:49;35.50;29.30
44537;DHT22;30245;51.966;6.292;2022-08-21T14:17:36;35.50;29.40
44537;DHT22;30245;51.966;6.292;2022-08-21T14:20:09;35.60;29.40
44537;DHT22;30245;51.966;6.292;2022-08-21T14:22:39;35.90;29.30
44537;DHT22;30245;51.966;6.292;2022-08-21T14:25:10;36.00;28.90
44537;DHT22;30245;51.966;6.292;2022-08-21T14:27:43;35.90;28.80
44537;DHT22;30245;51.966;6.292;2022-08-21T14:30:16;36.20;28.60
44537;DHT22;30245;51.966;6.292;2022-08-21T14:32:42;36.30;28.30
44537;DHT22;30245;51.966;6.292;2022-08-21T14:35:08;36.30;28.40
44537;DHT22;30245;51.966;6.292;2022-08-21T14:37:34;36.40;28.20
44537;DHT22;30245;51.966;6.292;2022-08-21T14:40:00;36.70;28.30
44537;DHT22;30245;51.966;6.292;2022-08-21T14:42:26;36.80;28.00
44537;DHT22;30245;51.966;6.292;2022-08-21T14:44:55;36.90;27.90
44537;DHT22;30245;51.966;6.292;2022-08-21T14:47:21;36.80;27.70
44537;DHT22;30245;51.966;6.292;2022-08-21T14:49:47;36.70;28.00
44537;DHT22;30245;51.966;6.292;2022-08-21T14:52:13;37.10;27.90
44537;DHT22;30245;51.966;6.292;2022-08-21T14:54:38;37.50;27.70
44537;DHT22;30245;51.966;6.292;2022-08-21T14:57:09;37.90;27.70
44537;DHT22;30245;51.966;6.292;2022-08-21T14:59:36;38.20;27.30
44537;DHT22;30245;51.966;6.292;2022-08-21T15:02:02;38.30;27.10
44537;DHT22;30245;51.966;6.292;2022-08-21T15:04:29;38.20;26.70
44537;DHT22;30245;51.966;6.292;2022-08-21T15:06:55;38.10;26.80
44537;DHT22;30245;51.966;6.292;2022-08-21T15:09:21;38.30;26.60
44537;DHT22;30245;51.966;6.292;2022-08-21T15:11:47;38.30;26.10
44537;DHT22;30245;51.966;6.292;2022-08-21T15:14:19;38.40;26.10
44537;DHT22;30245;51.966;6.292;2022-08-21T15:16:45;38.60;25.60
44537;DHT22;30245;51.966;6.292;2022-08-21T15:19:11;38.50;25.60
44537;DHT22;30245;51.966;6.292;2022-08-21T15:21:36;38.40;25.60
44537;DHT22;30245;51.966;6.292;2022-08-21T15:24:02;38.20;25.70
44537;DHT22;30245;51.966;6.292;2022-08-21T15:26:28;38.20;25.70
44537;DHT22;30245;51.966;6.292;2022-08-21T15:28:54;38.20;25.90
44537;DHT22;30245;51.966;6.292;2022-08-21T15:31:19;38.20;26.00
44537;DHT22;30245;51.966;6.292;2022-08-21T15:33:45;37.90;25.90
44537;DHT22;30245;51.966;6.292;2022-08-21T15:36:11;37.50;26.00
44537;DHT22;30245;51.966;6.292;2022-08-21T15:38:36;37.10;26.20
44537;DHT22;30245;51.966;6.292;2022-08-21T15:41:03;36.80;26.40
44537;DHT22;30245;51.966;6.292;2022-08-21T15:43:43;36.50;26.40
44537;DHT22;30245;51.966;6.292;2022-08-21T15:46:12;36.40;26.70
44537;DHT22;30245;51.966;6.292;2022-08-21T15:48:38;36.40;26.80
44537;DHT22;30245;51.966;6.292;2022-08-21T15:51:04;36.50;26.80
44537;DHT22;30245;51.966;6.292;2022-08-21T15:53:30;36.50;26.90
44537;DHT22;30245;51.966;6.292;2022-08-21T15:55:59;36.60;26.90
44537;DHT22;30245;51.966;6.292;2022-08-21T15:58:25;36.60;26.60
44537;DHT22;30245;51.966;6.292;2022-08-21T16:00:51;36.30;26.70
44537;DHT22;30245;51.966;6.292;2022-08-21T16:03:17;35.90;26.80
44537;DHT22;30245;51.966;6.292;2022-08-21T16:05:47;35.50;27.00
44537;DHT22;30245;51.966;6.292;2022-08-21T16:08:14;35.20;27.20
44537;DHT22;30245;51.966;6.292;2022-08-21T16:10:40;35.00;27.50
44537;DHT22;30245;51.966;6.292;2022-08-21T16:13:12;34.80;27.50
44537;DHT22;30245;51.966;6.292;2022-08-21T16:15:39;34.60;27.60
44537;DHT22;30245;51.966;6.292;2022-08-21T16:18:05;34.40;27.90
44537;DHT22;30245;51.966;6.292;2022-08-21T16:20:31;34.30;28.30
44537;DHT22;30245;51.966;6.292;2022-08-21T16:22:57;34.20;28.70
44537;DHT22;30245;51.966;6.292;2022-08-21T16:25:23;34.10;28.80
44537;DHT22;30245;51.966;6.292;2022-08-21T16:27:55;34.00;29.10
44537;DHT22;30245;51.966;6.292;2022-08-21T16:30:22;33.80;29.60
44537;DHT22;30245;51.966;6.292;2022-08-21T16:32:48;33.60;29.40
44537;DHT22;30245;51.966;6.292;2022-08-21T16:35:16;33.40;29.60
44537;DHT22;30245;51.966;6.292;2022-08-21T16:37:43;33.20;29.80
44537;DHT22;30245;51.966;6.292;2022-08-21T16:40:09;33.10;29.80
44537;DHT22;30245;51.966;6.292;2022-08-21T16:42:36;33.00;29.90
44537;DHT22;30245;51.966;6.292;2022-08-21T16:45:05;32.90;30.10
44537;DHT22;30245;51.966;6.292;2022-08-21T16:47:31;32.70;30.30
44537;DHT22;30245;51.966;6.292;2022-08-21T16:49:57;32.50;30.40
44537;DHT22;30245;51.966;6.292;2022-08-21T16:52:23;32.40;30.40
44537;DHT22;30245;51.966;6.292;2022-08-21T16:54:49;32.30;30.50